Priwall — V2OX8 — position and weather

sailwx.info

Track history (hours):
 
Tides and Currents Weather Stations Pressure Air Temp Water Temp Dewpoint Dewpoint Depression Visibility Wind Speed Wind Dir Waves Ship Positions

Priwall

Last reported at 2015-Apr-16 23:30 UTC. Time now 2015-Apr-18 08:51 UTC.
Position N 50°32' E 000°02'.

Length 88 m; draft 5.6 m.

Type: Ship. MMSI: 304739000.

Date/timePositionNaut miles runAvg speedWind from/ knotsBaromVisibWave heightAir tempDewpointWater temp
2015-Apr-16 23:30N 50°32' E 000°02'10 9.8
2015-Apr-16 22:31N 50°35' E 000°17'9 9.0
2015-Apr-16 21:33N 50°37' E 000°30'8 8.3
2015-Apr-16 20:34N 50°41' E 000°41'8 8.2
2015-Apr-16 19:34N 50°46' E 000°52'10 8.8
2015-Apr-16 18:28N 50°52' E 001°04'1010.5
2015-Apr-16 17:33N 50°58' E 001°16'1211.7
2015-Apr-16 16:33N 51°06' E 001°29'1211.7
2015-Apr-16 15:34N 51°17' E 001°36'1010.3
2015-Apr-16 14:33N 51°26' E 001°29'1110.6
2015-Apr-16 13:33N 51°29' E 001°12'1110.8
2015-Apr-16 12:33N 51°29' E 000°55'8 8.2
2015-Apr-16 11:34N 51°25' E 000°43'2 2.1
2015-Apr-16 10:31N 51°23' E 000°46'0 0.0
2015-Apr-16 09:17N 51°23' E 000°46'0 0.0
2015-Apr-16 06:17N 51°23' E 000°46'0 0.0
2015-Apr-16 05:20N 51°23' E 000°46'0 0.0
2015-Apr-16 04:23N 51°23' E 000°46'0 0.0
2015-Apr-16 00:29N 51°23' E 000°46'0 0.0
2015-Apr-15 23:05N 51°23' E 000°46'0 0.0
2015-Apr-15 22:14N 51°23' E 000°46'0 0.0
2015-Apr-15 21:32N 51°23' E 000°46'0 0.0
2015-Apr-15 20:32N 51°23' E 000°46'0 0.0
2015-Apr-15 17:05N 51°23' E 000°46'0 0.0
2015-Apr-15 16:32N 51°23' E 000°46'0 0.0
2015-Apr-15 15:23N 51°23' E 000°46'0 0.0
2015-Apr-15 10:23N 51°23' E 000°46'0 0.0
2015-Apr-15 09:26N 51°23' E 000°46'0 0.0
2015-Apr-15 08:29N 51°23' E 000°46'0 0.0
2015-Apr-15 07:32N 51°23' E 000°46'2 2.1
2015-Apr-15 06:33N 51°25' E 000°44'8 8.0
2015-Apr-15 05:33N 51°30' E 000°55'5 5.3
2015-Apr-15 04:33N 51°30' E 001°03'8 8.3
2015-Apr-15 03:33N 51°29' E 001°17'9 8.6
2015-Apr-15 02:33N 51°29' E 001°31'1010.1
2015-Apr-15 01:33N 51°29' E 001°47'1010.1
2015-Apr-15 00:33N 51°25' E 002°02'1010.4
2015-Apr-14 23:33N 51°21' E 002°17'10 9.3
2015-Apr-14 22:32N 51°23' E 002°32'9 9.2
2015-Apr-14 21:33N 51°22' E 002°46'9 8.9
2015-Apr-14 20:30N 51°22' E 003°01'8 8.7
2015-Apr-14 19:33N 51°23' E 003°14'9 8.8
2015-Apr-14 18:33N 51°25' E 003°28'8 7.9
2015-Apr-14 17:33N 51°24' E 003°41'7 6.9
2015-Apr-14 16:34N 51°20' E 003°49'1 0.9
2015-Apr-14 15:33N 51°19' E 003°50'5 4.6
2015-Apr-14 14:34N 51°14' E 003°49'8 8.4
2015-Apr-14 13:33N 51°06' E 003°44'0 0.2
2015-Apr-14 12:28N 51°06' E 003°44'0 0.0
2015-Apr-14 11:28N 51°06' E 003°44'0 0.0
2015-Apr-14 10:28N 51°06' E 003°44'0 0.0
2015-Apr-14 09:28N 51°06' E 003°44'0 0.0
2015-Apr-14 08:28N 51°06' E 003°44'0 0.0
2015-Apr-14 07:28N 51°06' E 003°44'0 0.0
2015-Apr-14 06:28N 51°06' E 003°44'0 0.0
2015-Apr-14 05:28N 51°06' E 003°44'0 0.0
2015-Apr-14 04:31N 51°06' E 003°44'0 0.0
2015-Apr-14 03:28N 51°06' E 003°44'0 0.0
2015-Apr-14 02:31N 51°06' E 003°44'0 0.0
2015-Apr-14 01:32N 51°06' E 003°44'0 0.0
2015-Apr-14 00:31N 51°06' E 003°44'0 0.0
2015-Apr-13 23:31N 51°06' E 003°44'0 0.0
2015-Apr-13 22:22N 51°06' E 003°44'0 0.0
2015-Apr-13 21:28N 51°06' E 003°44'0 0.0
2015-Apr-13 20:28N 51°06' E 003°44'0 0.0
2015-Apr-13 19:22N 51°06' E 003°44'0 0.0
2015-Apr-13 18:28N 51°06' E 003°44'0 0.0
2015-Apr-13 17:28N 51°06' E 003°44'0 0.0
2015-Apr-13 16:28N 51°06' E 003°44'0 0.0
2015-Apr-13 15:28N 51°06' E 003°44'0 0.0
2015-Apr-13 14:33N 51°06' E 003°44'0 0.0
2015-Apr-13 13:31N 51°06' E 003°44'0 0.0
2015-Apr-13 12:33N 51°06' E 003°44'0 0.0
2015-Apr-13 11:33N 51°06' E 003°44'0 0.0
2015-Apr-13 10:33N 51°06' E 003°44'0 0.0
2015-Apr-13 09:33N 51°06' E 003°44'0 0.0
2015-Apr-13 08:30N 51°06' E 003°44'0 0.0
2015-Apr-13 07:30N 51°06' E 003°44'0 0.0
2015-Apr-13 06:30N 51°06' E 003°44'0 0.0
2015-Apr-13 05:33N 51°06' E 003°44'0 0.0
2015-Apr-13 04:30N 51°06' E 003°44'0 0.0
2015-Apr-13 03:33N 51°06' E 003°44'0 0.0
2015-Apr-13 02:30N 51°06' E 003°44'0 0.0
2015-Apr-13 01:33N 51°06' E 003°44'0 0.0
2015-Apr-13 00:33N 51°06' E 003°44'0 0.0
2015-Apr-12 23:33N 51°06' E 003°44'0 0.0
2015-Apr-12 22:30N 51°06' E 003°44'0 0.0
2015-Apr-12 21:30N 51°06' E 003°44'0 0.0
2015-Apr-12 20:30N 51°06' E 003°44'0 0.0
2015-Apr-12 19:27N 51°06' E 003°44'0 0.0
2015-Apr-12 18:30N 51°06' E 003°44'4 3.9
2015-Apr-12 17:33N 51°09' E 003°47'7 6.6
2015-Apr-12 16:33N 51°16' E 003°50'4 4.0
2015-Apr-12 15:34N 51°20' E 003°49'2 2.1
2015-Apr-12 14:33N 51°21' E 003°47'7 6.6
2015-Apr-12 13:33N 51°25' E 003°38'6 6.2
2015-Apr-12 12:33N 51°25' E 003°28'8 7.5
2015-Apr-12 11:31N 51°23' E 003°16'8 8.4
2015-Apr-12 10:34N 51°22' E 003°03'9 9.1
2015-Apr-12 09:33N 51°22' E 002°48'6 5.4
2015-Apr-12 08:32N 51°21' E 002°40'3 2.9
2015-Apr-12 07:33N 51°22' E 002°35'5 4.7
2015-Apr-12 06:33N 51°21' E 002°28'6 6.2
2015-Apr-12 05:33N 51°18' E 002°19'7 7.0
2015-Apr-12 04:33N 51°15' E 002°09'7 6.9
2015-Apr-12 03:34N 51°11' E 002°00'7 7.1
2015-Apr-12 02:33N 51°08' E 001°51'8 7.7
2015-Apr-12 01:33N 51°02' E 001°41'7 7.2
2015-Apr-12 00:33N 50°57' E 001°34'6 6.2
2015-Apr-11 23:33N 50°52' E 001°29'6 6.4
2015-Apr-11 22:34N 50°46' E 001°25'184 4.5
2015-Apr-10 05:22N 48°39' W 002°01'0 0.0
2015-Apr-09 18:28N 48°39' W 002°01'0 0.0
2015-Apr-09 09:07N 48°39' W 002°01'0 0.0
2015-Apr-09 07:04N 48°39' W 002°01'127 3.1
2015-Apr-07 14:33N 48°39' W 005°13'  
Track history (hours):
 
Tides and Currents Weather Stations Pressure Air Temp Water Temp Dewpoint Dewpoint Depression Visibility Wind Speed Wind Dir Waves Ship Positions

Priwall

Last reported at 2015-Apr-16 23:30 UTC. Time now 2015-Apr-18 08:51 UTC.
Position N 50°32' E 000°02'.

Length 88 m; draft 5.6 m.

Type: Ship. MMSI: 304739000.

Date/timePositionNaut miles runAvg speedWind from/ knotsBaromVisibWave heightAir tempDewpointWater temp
2015-Apr-16 23:30N 50°32' E 000°02'10 9.8
2015-Apr-16 22:31N 50°35' E 000°17'9 9.0
2015-Apr-16 21:33N 50°37' E 000°30'8 8.3
2015-Apr-16 20:34N 50°41' E 000°41'8 8.2
2015-Apr-16 19:34N 50°46' E 000°52'10 8.8
2015-Apr-16 18:28N 50°52' E 001°04'1010.5
2015-Apr-16 17:33N 50°58' E 001°16'1211.7
2015-Apr-16 16:33N 51°06' E 001°29'1211.7
2015-Apr-16 15:34N 51°17' E 001°36'1010.3
2015-Apr-16 14:33N 51°26' E 001°29'1110.6
2015-Apr-16 13:33N 51°29' E 001°12'1110.8
2015-Apr-16 12:33N 51°29' E 000°55'8 8.2
2015-Apr-16 11:34N 51°25' E 000°43'2 2.1
2015-Apr-16 10:31N 51°23' E 000°46'0 0.0
2015-Apr-16 09:17N 51°23' E 000°46'0 0.0
2015-Apr-16 06:17N 51°23' E 000°46'0 0.0
2015-Apr-16 05:20N 51°23' E 000°46'0 0.0
2015-Apr-16 04:23N 51°23' E 000°46'0 0.0
2015-Apr-16 00:29N 51°23' E 000°46'0 0.0
2015-Apr-15 23:05N 51°23' E 000°46'0 0.0
2015-Apr-15 22:14N 51°23' E 000°46'0 0.0
2015-Apr-15 21:32N 51°23' E 000°46'0 0.0
2015-Apr-15 20:32N 51°23' E 000°46'0 0.0
2015-Apr-15 17:05N 51°23' E 000°46'0 0.0
2015-Apr-15 16:32N 51°23' E 000°46'0 0.0
2015-Apr-15 15:23N 51°23' E 000°46'0 0.0
2015-Apr-15 10:23N 51°23' E 000°46'0 0.0
2015-Apr-15 09:26N 51°23' E 000°46'0 0.0
2015-Apr-15 08:29N 51°23' E 000°46'0 0.0
2015-Apr-15 07:32N 51°23' E 000°46'2 2.1
2015-Apr-15 06:33N 51°25' E 000°44'8 8.0
2015-Apr-15 05:33N 51°30' E 000°55'5 5.3
2015-Apr-15 04:33N 51°30' E 001°03'8 8.3
2015-Apr-15 03:33N 51°29' E 001°17'9 8.6
2015-Apr-15 02:33N 51°29' E 001°31'1010.1
2015-Apr-15 01:33N 51°29' E 001°47'1010.1
2015-Apr-15 00:33N 51°25' E 002°02'1010.4
2015-Apr-14 23:33N 51°21' E 002°17'10 9.3
2015-Apr-14 22:32N 51°23' E 002°32'9 9.2
2015-Apr-14 21:33N 51°22' E 002°46'9 8.9
2015-Apr-14 20:30N 51°22' E 003°01'8 8.7
2015-Apr-14 19:33N 51°23' E 003°14'9 8.8
2015-Apr-14 18:33N 51°25' E 003°28'8 7.9
2015-Apr-14 17:33N 51°24' E 003°41'7 6.9
2015-Apr-14 16:34N 51°20' E 003°49'1 0.9
2015-Apr-14 15:33N 51°19' E 003°50'5 4.6
2015-Apr-14 14:34N 51°14' E 003°49'8 8.4
2015-Apr-14 13:33N 51°06' E 003°44'0 0.2
2015-Apr-14 12:28N 51°06' E 003°44'0 0.0
2015-Apr-14 11:28N 51°06' E 003°44'0 0.0
2015-Apr-14 10:28N 51°06' E 003°44'0 0.0
2015-Apr-14 09:28N 51°06' E 003°44'0 0.0
2015-Apr-14 08:28N 51°06' E 003°44'0 0.0
2015-Apr-14 07:28N 51°06' E 003°44'0 0.0
2015-Apr-14 06:28N 51°06' E 003°44'0 0.0
2015-Apr-14 05:28N 51°06' E 003°44'0 0.0
2015-Apr-14 04:31N 51°06' E 003°44'0 0.0
2015-Apr-14 03:28N 51°06' E 003°44'0 0.0
2015-Apr-14 02:31N 51°06' E 003°44'0 0.0
2015-Apr-14 01:32N 51°06' E 003°44'0 0.0
2015-Apr-14 00:31N 51°06' E 003°44'0 0.0
2015-Apr-13 23:31N 51°06' E 003°44'0 0.0
2015-Apr-13 22:22N 51°06' E 003°44'0 0.0
2015-Apr-13 21:28N 51°06' E 003°44'0 0.0
2015-Apr-13 20:28N 51°06' E 003°44'0 0.0
2015-Apr-13 19:22N 51°06' E 003°44'0 0.0
2015-Apr-13 18:28N 51°06' E 003°44'0 0.0
2015-Apr-13 17:28N 51°06' E 003°44'0 0.0
2015-Apr-13 16:28N 51°06' E 003°44'0 0.0
2015-Apr-13 15:28N 51°06' E 003°44'0 0.0
2015-Apr-13 14:33N 51°06' E 003°44'0 0.0
2015-Apr-13 13:31N 51°06' E 003°44'0 0.0
2015-Apr-13 12:33N 51°06' E 003°44'0 0.0
2015-Apr-13 11:33N 51°06' E 003°44'0 0.0
2015-Apr-13 10:33N 51°06' E 003°44'0 0.0
2015-Apr-13 09:33N 51°06' E 003°44'0 0.0
2015-Apr-13 08:30N 51°06' E 003°44'0 0.0
2015-Apr-13 07:30N 51°06' E 003°44'0 0.0
2015-Apr-13 06:30N 51°06' E 003°44'0 0.0
2015-Apr-13 05:33N 51°06' E 003°44'0 0.0
2015-Apr-13 04:30N 51°06' E 003°44'0 0.0
2015-Apr-13 03:33N 51°06' E 003°44'0 0.0
2015-Apr-13 02:30N 51°06' E 003°44'0 0.0
2015-Apr-13 01:33N 51°06' E 003°44'0 0.0
2015-Apr-13 00:33N 51°06' E 003°44'0 0.0
2015-Apr-12 23:33N 51°06' E 003°44'0 0.0
2015-Apr-12 22:30N 51°06' E 003°44'0 0.0
2015-Apr-12 21:30N 51°06' E 003°44'0 0.0
2015-Apr-12 20:30N 51°06' E 003°44'0 0.0
2015-Apr-12 19:27N 51°06' E 003°44'0 0.0
2015-Apr-12 18:30N 51°06' E 003°44'4 3.9
2015-Apr-12 17:33N 51°09' E 003°47'7 6.6
2015-Apr-12 16:33N 51°16' E 003°50'4 4.0
2015-Apr-12 15:34N 51°20' E 003°49'2 2.1
2015-Apr-12 14:33N 51°21' E 003°47'7 6.6
2015-Apr-12 13:33N 51°25' E 003°38'6 6.2
2015-Apr-12 12:33N 51°25' E 003°28'8 7.5
2015-Apr-12 11:31N 51°23' E 003°16'8 8.4
2015-Apr-12 10:34N 51°22' E 003°03'9 9.1
2015-Apr-12 09:33N 51°22' E 002°48'6 5.4
2015-Apr-12 08:32N 51°21' E 002°40'3 2.9
2015-Apr-12 07:33N 51°22' E 002°35'5 4.7
2015-Apr-12 06:33N 51°21' E 002°28'6 6.2
2015-Apr-12 05:33N 51°18' E 002°19'7 7.0
2015-Apr-12 04:33N 51°15' E 002°09'7 6.9
2015-Apr-12 03:34N 51°11' E 002°00'7 7.1
2015-Apr-12 02:33N 51°08' E 001°51'8 7.7
2015-Apr-12 01:33N 51°02' E 001°41'7 7.2
2015-Apr-12 00:33N 50°57' E 001°34'6 6.2
2015-Apr-11 23:33N 50°52' E 001°29'6 6.4
2015-Apr-11 22:34N 50°46' E 001°25'184 4.5
2015-Apr-10 05:22N 48°39' W 002°01'0 0.0
2015-Apr-09 18:28N 48°39' W 002°01'0 0.0
2015-Apr-09 09:07N 48°39' W 002°01'0 0.0
2015-Apr-09 07:04N 48°39' W 002°01'127 3.1
2015-Apr-07 14:33N 48°39' W 005°13'  

Dump ship's entire track history